ADDS METAR Data INFO
IDs: Format: Raw Decoded Include TAF

Data at: 1748 UTC 21 Oct 2017

KWVI 211653Z AUTO 00000KT 10SM CLR 13/08 A3025 RMK AO2 SLP243 T01280078
KWVI 211553Z AUTO 00000KT 10SM CLR 11/10 A3025 RMK AO2 SLP243 T01060100 $
KWVI 211453Z AUTO 31003KT 10SM CLR 07/07 A3024 RMK AO2 SLP239 T00720072 53010 $
KWVI 211353Z AUTO 31004KT 10SM CLR 07/07 A3022 RMK AO2 SLP234 T00670067 $
KWVI 211253Z AUTO 00000KT 10SM CLR 07/ A3021 RMK AO2 SLP229 T0072 $
KWVI 211153Z AUTO 32005KT 10SM CLR 07/07 A3021 RMK AO2 SLP229 T00720072 10094 20072 51009 $
KWVI 211053Z AUTO 30004KT 10SM CLR 08/08 A3020 RMK AO2 SLP225 T00780078 $
KWVI 210953Z AUTO 30006KT 10SM CLR 08/08 A3019 RMK AO2 SLP223 T00780078 $
KWVI 210853Z AUTO 30004KT 10SM CLR 08/08 A3018 RMK AO2 SLP219 T00830083 51001 $
KWVI 210753Z AUTO 31004KT 10SM CLR 09/08 A3018 RMK AO2 SLP219 T00890078 401940089 $
KWVI 210653Z AUTO 32003KT 10SM CLR 09/08 A3018 RMK AO2 SLP220 T00940083 $
KWVI 210553Z AUTO 33004KT 10SM CLR 09/08 A3018 RMK AO2 SLP218 T00940083 10194 20094 53017 $
KWVI 210453Z AUTO 00000KT 10SM CLR 11/11 A3015 RMK AO2 SLP209 T01110106
KWVI 210353Z AUTO 00000KT 10SM CLR 13/08 A3014 RMK AO2 SLP206 T01280083
KWVI 210253Z AUTO 25007KT 10SM CLR 12/08 A3012 RMK AO2 SLP200 T01220083 53008
KWVI 210153Z AUTO 26006KT 10SM CLR 14/07 A3011 RMK AO2 SLP197 T01440067
KWVI 210053Z AUTO 28007KT 10SM CLR 17/06 A3010 RMK AO2 SLP191 T01670061
KWVI 202353Z AUTO 23010KT 10SM BKN050 OVC060 17/09 A3010 RMK AO2 SLP192 T01720089 10189 20156 55000
KWVI 202253Z AUTO 22007KT 10SM SCT055 SCT065 17/09 A3009 RMK AO2 SLP187 T01670094
KWVI 202153Z AUTO 23009KT 10SM BKN065 18/09 A3009 RMK AO2 SLP190 T01830094
KWVI 202053Z AUTO 24010KT 10SM SCT065 18/11 A3010 RMK AO2 SLP193 T01780106 58003 $
KWVI 201953Z AUTO 24009KT 10SM FEW055 17/11 A3011 RMK AO2 SLP197 T01720106 $
KWVI 201853Z AUTO 24010KT 10SM CLR 16/13 A3012 RMK AO2 SLP199 T01560133 $
KWVI 201753Z AUTO VRB03KT 10SM FEW014 16/15 A3011 RMK AO2 SLP196 T01560150 10156 20094 51010 $
KWVI 201743Z AUTO 00000KT 10SM SCT014 16/14 A3011 RMK AO2 T01560144 $
KWVI 201712Z AUTO VRB03KT 10SM BKN013 14/14 A3012 RMK AO2 T01440139 $
KWVI 201653Z AUTO 00000KT 10SM CLR 14/14 A3011 RMK AO2 SLP195 T01390139 $
KWVI 201553Z AUTO 00000KT 10SM CLR 13/ A3009 RMK AO2 SLP189 T0128 $
KWVI 201453Z AUTO 28003KT 10SM CLR 10/ A3008 RMK AO2 SLP186 T0100 51021
KWVI 201438Z AUTO 29003KT 10SM FEW004 10/ A3007 RMK AO2 T0100
KWVI 201353Z AUTO 21003KT 10SM CLR 10/ A3006 RMK AO2 SLP180 T0100 $
KWVI 201253Z AUTO 12003KT 10SM CLR 11/ A3005 RMK AO2 SLP175 T0111 $
KWVI 201153Z AUTO 06004KT 10SM SCT090 12/ A3002 RMK AO2 SLP164 60007 70008 T0117 10156 20111 53025 $
KWVI 201053Z AUTO 21006KT 10SM BKN085 12/ A2998 RMK AO2 RAE09 SLP152 P0000 T0122 $
KWVI 200953Z AUTO 20006KT 10SM -RA OVC055 13/ A2995 RMK AO2 SLP143 P0001 T0128 $
KWVI 200853Z AUTO 28012G19KT 6SM -RA FEW007 BKN035 OVC046 13/ A2994 RMK AO2 RAB0755 SLP139 P0006 60006 T0133 53003 $
KWVI 200849Z AUTO 27010G19KT 8SM -RA SCT007 BKN030 OVC046 13/ A2994 RMK AO2 RAB0755 P0005 $
KWVI 200840Z AUTO 25009KT 10SM -RA BKN007 OVC040 13/ A2993 RMK AO2 RAB0755 P0005 T0128 $
KWVI 200828Z AUTO 23012G22KT 8SM -RA BKN005 OVC050 13/13 A2992 RMK AO2 RAB0755 P0005 T01280128 $
KWVI 200753Z AUTO 19012G19KT 10SM OVC006 16/16 A2992 RMK AO2 CIG 006V011 SLP132 T01560156 401720089
KWVI 200653Z AUTO 20008KT 10SM OVC007 15/15 A2994 RMK AO2 RAE00 SLP136 P0000 T01500150
KWVI 200616Z AUTO 01003KT 10SM OVC009 14/14 A2994 RMK AO2 RAE00 P0000 T01440144
KWVI 200553Z AUTO 00000KT 10SM -RA OVC010 14/14 A2995 RMK AO2 RAB30 SLP143 P0001 60001 T01440139 10167 20139 55001